createdAt,value
2019-03-16T00:00:18.746Z,979.93
2019-03-16T00:01:18.685Z,980.16
2019-03-16T00:02:18.626Z,980.18
2019-03-16T00:03:18.567Z,980.10
2019-03-16T00:04:18.509Z,980.07
2019-03-16T00:05:18.451Z,980.26
2019-03-16T00:06:18.394Z,980.25
2019-03-16T00:07:28.160Z,980.20
2019-03-16T00:08:18.275Z,980.20
2019-03-16T00:09:18.217Z,980.22
2019-03-16T00:10:18.161Z,980.23
2019-03-16T00:11:18.101Z,980.25
2019-03-16T00:12:18.041Z,980.25
2019-03-16T00:13:17.985Z,980.29
2019-03-16T00:14:17.925Z,980.30
2019-03-16T00:15:17.866Z,980.27
2019-03-16T00:16:17.808Z,980.29
2019-03-16T00:17:23.376Z,980.29
2019-03-16T00:18:17.692Z,980.23
2019-03-16T00:19:17.635Z,980.22
2019-03-16T00:20:17.575Z,980.27
2019-03-16T00:21:17.520Z,980.24
2019-03-16T00:22:17.460Z,980.20
2019-03-16T00:23:17.402Z,980.19
2019-03-16T00:24:17.343Z,980.16
2019-03-16T00:25:17.286Z,980.27
2019-03-16T00:26:17.227Z,980.05
2019-03-16T00:27:17.165Z,980.22
2019-03-16T00:28:17.109Z,980.28
2019-03-16T00:29:17.049Z,980.27
2019-03-16T00:30:16.992Z,980.25
2019-03-16T00:31:16.936Z,980.23
2019-03-16T00:32:16.875Z,980.26
2019-03-16T00:33:16.815Z,980.26
2019-03-16T00:34:16.758Z,980.25
2019-03-16T00:35:16.700Z,980.26
2019-03-16T00:36:16.645Z,980.30
2019-03-16T00:37:16.584Z,980.23
2019-03-16T00:38:16.528Z,980.28
2019-03-16T00:39:16.466Z,980.28
2019-03-16T00:40:16.408Z,980.32
2019-03-16T00:41:16.348Z,980.27
2019-03-16T00:42:16.291Z,980.36
2019-03-16T00:43:16.232Z,980.32
2019-03-16T00:44:16.189Z,980.30
2019-03-16T00:45:16.115Z,980.25
2019-03-16T00:46:16.062Z,980.34
2019-03-16T00:47:16.003Z,980.36
2019-03-16T00:48:15.949Z,980.35
2019-03-16T00:49:15.884Z,980.42
2019-03-16T00:50:15.824Z,980.31
2019-03-16T00:51:15.765Z,980.30
2019-03-16T00:52:15.707Z,980.26
2019-03-16T00:53:15.648Z,980.27
2019-03-16T00:54:15.592Z,980.27
2019-03-16T00:55:15.531Z,980.34
2019-03-16T00:56:15.473Z,980.25
2019-03-16T00:57:15.416Z,980.34
2019-03-16T00:58:15.365Z,980.25
2019-03-16T00:59:15.300Z,980.30
2019-03-16T01:00:15.241Z,980.41
2019-03-16T01:01:15.181Z,980.31
2019-03-16T01:02:26.624Z,980.29
2019-03-16T01:03:15.065Z,980.32
2019-03-16T01:04:15.007Z,980.41
2019-03-16T01:05:14.949Z,980.34
2019-03-16T01:06:14.891Z,980.39
2019-03-16T01:07:14.831Z,980.39
2019-03-16T01:08:14.773Z,980.43
2019-03-16T01:09:14.717Z,980.42
2019-03-16T01:10:14.659Z,980.32
2019-03-16T01:11:14.598Z,980.37
2019-03-16T01:12:14.541Z,980.33
2019-03-16T01:13:14.481Z,980.35
2019-03-16T01:14:14.425Z,980.34
2019-03-16T01:15:14.367Z,980.38
2019-03-16T01:16:14.307Z,980.41
2019-03-16T01:17:14.249Z,980.40
2019-03-16T01:18:14.190Z,980.46
2019-03-16T01:19:14.130Z,980.43
2019-03-16T01:20:14.075Z,980.47
2019-03-16T01:21:14.015Z,980.40
2019-03-16T01:22:13.956Z,980.43
2019-03-16T01:23:17.352Z,980.37
2019-03-16T01:24:14.814Z,980.49
2019-03-16T01:25:13.784Z,980.45
2019-03-16T01:26:13.722Z,980.41
2019-03-16T01:27:13.664Z,980.41
2019-03-16T01:28:13.607Z,980.32
2019-03-16T01:29:13.547Z,980.44
2019-03-16T01:30:13.489Z,980.29
2019-03-16T01:31:13.430Z,980.35
2019-03-16T01:32:13.373Z,980.36
2019-03-16T01:33:13.314Z,980.41
2019-03-16T01:34:13.256Z,980.44
2019-03-16T01:35:13.199Z,980.31
2019-03-16T01:36:13.138Z,980.37
2019-03-16T01:37:13.081Z,980.37
2019-03-16T01:38:13.023Z,980.40
2019-03-16T01:39:12.966Z,980.40
2019-03-16T01:40:12.909Z,980.38
2019-03-16T01:41:12.847Z,980.40
2019-03-16T01:42:12.795Z,980.39
2019-03-16T01:43:12.730Z,980.40
2019-03-16T01:44:12.672Z,980.43
2019-03-16T01:45:12.616Z,980.45
2019-03-16T01:46:12.556Z,980.42
2019-03-16T01:47:12.497Z,980.44
2019-03-16T01:48:12.443Z,980.38
2019-03-16T01:49:12.383Z,980.43
2019-03-16T01:50:12.322Z,980.51
2019-03-16T01:51:12.265Z,980.60
2019-03-16T01:52:12.209Z,980.48
2019-03-16T01:53:12.148Z,980.51
2019-03-16T01:54:12.090Z,980.52
2019-03-16T01:55:12.030Z,980.53
2019-03-16T01:56:11.975Z,980.52
2019-03-16T01:57:11.916Z,980.49
2019-03-16T01:58:11.856Z,980.55
2019-03-16T01:59:11.797Z,980.52
2019-03-16T02:00:11.738Z,980.48
2019-03-16T02:01:11.682Z,980.59
2019-03-16T02:02:11.625Z,980.53
2019-03-16T02:03:11.563Z,980.57
2019-03-16T02:04:11.506Z,980.64
2019-03-16T02:05:11.448Z,980.61
2019-03-16T02:06:11.390Z,980.51
2019-03-16T02:07:11.333Z,980.57
2019-03-16T02:08:11.273Z,980.62
2019-03-16T02:09:11.528Z,980.48
2019-03-16T02:10:11.156Z,980.56
2019-03-16T02:11:11.096Z,980.57
2019-03-16T02:12:11.039Z,980.54
2019-03-16T02:13:10.982Z,980.52
2019-03-16T02:14:10.925Z,980.54
2019-03-16T02:15:10.939Z,980.53
2019-03-16T02:16:11.659Z,980.51
2019-03-16T02:17:10.748Z,980.46
2019-03-16T02:18:10.692Z,980.48
2019-03-16T02:19:10.630Z,980.58
2019-03-16T02:20:10.575Z,980.48
2019-03-16T02:21:10.515Z,980.50
2019-03-16T02:22:10.458Z,980.42
2019-03-16T02:23:10.416Z,980.31
2019-03-16T02:24:10.489Z,980.43
2019-03-16T02:25:10.288Z,980.42
2019-03-16T02:26:10.222Z,980.31
2019-03-16T02:27:10.166Z,980.40
2019-03-16T02:28:10.105Z,980.41
2019-03-16T02:29:10.049Z,980.41
2019-03-16T02:30:09.989Z,980.39
2019-03-16T02:31:09.935Z,980.43
2019-03-16T02:32:09.872Z,980.48
2019-03-16T02:33:12.957Z,980.43
2019-03-16T02:34:09.758Z,980.44
2019-03-16T02:35:09.712Z,980.45
2019-03-16T02:36:09.653Z,980.47
2019-03-16T02:37:09.584Z,980.46
2019-03-16T02:38:09.526Z,980.34
2019-03-16T02:39:09.468Z,980.37
2019-03-16T02:40:09.409Z,980.41
2019-03-16T02:41:09.350Z,980.37
2019-03-16T02:42:09.289Z,980.39
2019-03-16T02:43:09.229Z,980.40
2019-03-16T02:44:11.304Z,980.49
2019-03-16T02:45:09.115Z,980.40
2019-03-16T02:46:09.056Z,980.52
2019-03-16T02:47:08.998Z,980.44
2019-03-16T02:48:08.939Z,980.42
2019-03-16T02:49:08.888Z,980.42
2019-03-16T02:50:08.838Z,980.40
2019-03-16T02:51:08.764Z,980.41
2019-03-16T02:52:08.710Z,980.38
2019-03-16T02:53:08.650Z,980.37
2019-03-16T02:54:08.593Z,980.37
2019-03-16T02:55:08.530Z,980.41
2019-03-16T02:56:08.473Z,980.35
2019-03-16T02:57:08.414Z,980.40
2019-03-16T02:58:08.358Z,980.40
2019-03-16T02:59:08.298Z,980.34
2019-03-16T03:00:08.242Z,980.37
2019-03-16T03:01:08.183Z,980.43
2019-03-16T03:02:08.132Z,980.41
2019-03-16T03:03:08.064Z,980.53
2019-03-16T03:04:08.009Z,980.40
2019-03-16T03:05:07.948Z,980.35
2019-03-16T03:06:07.890Z,980.40
2019-03-16T03:07:07.832Z,980.40
2019-03-16T03:08:07.772Z,980.35
2019-03-16T03:09:07.716Z,980.41
2019-03-16T03:10:07.657Z,980.38
2019-03-16T03:11:07.600Z,980.40
2019-03-16T03:12:07.545Z,980.41
2019-03-16T03:13:07.485Z,980.42
2019-03-16T03:14:07.423Z,980.35
2019-03-16T03:15:07.365Z,980.40
2019-03-16T03:16:07.307Z,980.47
2019-03-16T03:17:07.250Z,980.48
2019-03-16T03:18:07.194Z,980.61
2019-03-16T03:19:07.132Z,980.54
2019-03-16T03:20:07.073Z,980.50
2019-03-16T03:21:07.016Z,980.50
2019-03-16T03:22:06.958Z,980.43
2019-03-16T03:23:06.898Z,980.56
2019-03-16T03:24:06.848Z,980.54
2019-03-16T03:25:06.790Z,980.58
2019-03-16T03:26:06.727Z,980.56
2019-03-16T03:27:06.665Z,980.54
2019-03-16T03:28:06.607Z,980.57
2019-03-16T03:29:06.549Z,980.65
2019-03-16T03:30:06.490Z,980.62
2019-03-16T03:31:06.445Z,980.67
2019-03-16T03:32:06.374Z,980.54
2019-03-16T03:33:06.331Z,980.65
2019-03-16T03:34:06.266Z,980.67
2019-03-16T03:35:06.272Z,980.67
2019-03-16T03:36:06.141Z,980.63
2019-03-16T03:37:06.082Z,980.57
2019-03-16T03:38:06.024Z,980.58
2019-03-16T03:39:05.965Z,980.67
2019-03-16T03:40:05.913Z,980.55
2019-03-16T03:41:05.859Z,980.68
2019-03-16T03:42:05.791Z,980.72
2019-03-16T03:43:05.733Z,980.76
2019-03-16T03:44:05.674Z,980.70
2019-03-16T03:45:05.620Z,980.73
2019-03-16T03:46:05.561Z,980.73
2019-03-16T03:47:05.503Z,980.76
2019-03-16T03:48:05.443Z,980.71
2019-03-16T03:49:05.383Z,980.65
2019-03-16T03:50:05.332Z,980.65
2019-03-16T03:51:05.266Z,980.63
2019-03-16T03:52:05.220Z,980.67
2019-03-16T03:53:05.150Z,980.62
2019-03-16T03:54:05.094Z,980.57
2019-03-16T03:55:05.033Z,980.63
2019-03-16T03:56:04.973Z,980.69
2019-03-16T03:57:04.916Z,980.74
2019-03-16T03:58:04.865Z,980.53
2019-03-16T03:59:04.799Z,980.71
2019-03-16T04:00:04.740Z,980.73
2019-03-16T04:01:04.690Z,980.66
2019-03-16T04:02:04.630Z,980.50
2019-03-16T04:03:04.566Z,980.54
2019-03-16T04:04:15.337Z,980.57
2019-03-16T04:05:04.460Z,980.65
2019-03-16T04:06:04.393Z,980.63
2019-03-16T04:07:04.339Z,980.63
2019-03-16T04:08:04.307Z,980.66
2019-03-16T04:09:04.217Z,980.66
2019-03-16T04:10:04.163Z,980.68
2019-03-16T04:11:04.098Z,980.64
2019-03-16T04:12:04.042Z,980.63
2019-03-16T04:13:03.987Z,980.60
2019-03-16T04:14:03.926Z,980.73
2019-03-16T04:15:03.866Z,980.68
2019-03-16T04:16:03.808Z,980.71
2019-03-16T04:17:03.750Z,980.62
2019-03-16T04:18:03.698Z,980.64
2019-03-16T04:19:03.636Z,980.71
2019-03-16T04:20:03.577Z,980.74
2019-03-16T04:21:03.533Z,980.77
2019-03-16T04:22:03.459Z,980.79
2019-03-16T04:23:03.399Z,980.72
2019-03-16T04:24:03.343Z,980.75
2019-03-16T04:25:03.288Z,980.81
2019-03-16T04:26:03.236Z,980.88
2019-03-16T04:27:15.183Z,980.90
2019-03-16T04:28:03.110Z,980.83
2019-03-16T04:29:03.050Z,980.85
2019-03-16T04:30:02.993Z,980.80
2019-03-16T04:31:02.935Z,980.82
2019-03-16T04:32:02.875Z,980.86
2019-03-16T04:33:02.817Z,980.91
2019-03-16T04:34:02.762Z,980.80
2019-03-16T04:35:02.700Z,980.79
2019-03-16T04:36:02.644Z,980.86
2019-03-16T04:37:02.586Z,980.83
2019-03-16T04:38:02.526Z,980.83
2019-03-16T04:39:02.479Z,980.88
2019-03-16T04:40:02.411Z,980.87
2019-03-16T04:41:02.350Z,980.81
2019-03-16T04:42:02.294Z,980.83
2019-03-16T04:43:02.236Z,980.81
2019-03-16T04:44:02.176Z,980.86
2019-03-16T04:45:02.117Z,980.81
2019-03-16T04:46:02.061Z,980.75
2019-03-16T04:47:02.001Z,980.87
2019-03-16T04:48:01.946Z,980.84
2019-03-16T04:49:01.891Z,980.78
2019-03-16T04:50:01.830Z,980.77
2019-03-16T04:51:01.768Z,980.87
2019-03-16T04:52:01.716Z,980.90
2019-03-16T04:53:01.651Z,980.87
2019-03-16T04:54:01.593Z,980.83
2019-03-16T04:55:01.539Z,980.81
2019-03-16T04:56:01.500Z,980.84
2019-03-16T04:57:01.418Z,980.88
2019-03-16T04:58:01.361Z,980.71
2019-03-16T04:59:01.302Z,980.86
2019-03-16T05:00:01.327Z,980.87
2019-03-16T05:01:01.186Z,980.79
2019-03-16T05:02:01.130Z,980.78
2019-03-16T05:03:01.069Z,980.73
2019-03-16T05:04:01.010Z,980.75
2019-03-16T05:05:00.953Z,980.79
2019-03-16T05:06:00.894Z,980.89
2019-03-16T05:07:00.835Z,980.81
2019-03-16T05:08:00.777Z,980.86
2019-03-16T05:09:00.720Z,980.86
2019-03-16T05:10:00.661Z,980.88
2019-03-16T05:11:00.604Z,980.94
2019-03-16T05:12:00.544Z,980.83
2019-03-16T05:13:00.486Z,980.86
2019-03-16T05:14:00.434Z,980.78
2019-03-16T05:15:00.560Z,980.78
2019-03-16T05:16:00.312Z,980.75
2019-03-16T05:17:00.255Z,980.85
2019-03-16T05:18:00.197Z,980.80
2019-03-16T05:19:00.136Z,980.72
2019-03-16T05:20:00.083Z,980.70
2019-03-16T05:21:00.023Z,980.70
2019-03-16T05:21:59.964Z,980.70
2019-03-16T05:22:59.904Z,980.74
2019-03-16T05:24:02.719Z,980.64
2019-03-16T05:24:59.789Z,980.71
2019-03-16T05:25:59.730Z,980.70
2019-03-16T05:26:59.672Z,980.78
2019-03-16T05:27:59.615Z,980.73
2019-03-16T05:28:59.555Z,980.73
2019-03-16T05:29:59.498Z,980.77
2019-03-16T05:30:59.439Z,980.71
2019-03-16T05:31:59.379Z,980.78
2019-03-16T05:32:59.322Z,980.81
2019-03-16T05:33:59.264Z,980.71
2019-03-16T05:34:59.205Z,980.78
2019-03-16T05:35:59.147Z,980.88
2019-03-16T05:36:59.104Z,980.83
2019-03-16T05:37:59.031Z,980.88
2019-03-16T05:38:58.971Z,980.83
2019-03-16T05:39:58.919Z,980.87
2019-03-16T05:40:58.861Z,980.83
2019-03-16T05:41:58.801Z,980.82
2019-03-16T05:42:58.739Z,980.85
2019-03-16T05:43:58.681Z,980.84
2019-03-16T05:44:58.624Z,980.86
2019-03-16T05:45:58.566Z,980.86
2019-03-16T05:46:58.505Z,980.90
2019-03-16T05:47:58.449Z,980.94
2019-03-16T05:48:58.393Z,980.85
2019-03-16T05:49:58.331Z,980.89
2019-03-16T05:50:58.273Z,980.95
2019-03-16T05:51:58.215Z,980.88
2019-03-16T05:52:58.164Z,980.98
2019-03-16T05:53:58.100Z,980.98
2019-03-16T05:54:58.040Z,980.97
2019-03-16T05:55:57.983Z,980.98
2019-03-16T05:56:57.927Z,980.96
2019-03-16T05:57:57.868Z,981.03
2019-03-16T05:58:57.807Z,980.99
2019-03-16T05:59:57.767Z,980.96
2019-03-16T06:00:57.692Z,981.07
2019-03-16T06:01:57.636Z,981.01
2019-03-16T06:02:57.574Z,981.01
2019-03-16T06:03:57.516Z,981.04
2019-03-16T06:05:09.742Z,981.00
2019-03-16T06:05:57.405Z,981.08
2019-03-16T06:06:57.341Z,981.07
2019-03-16T06:07:57.283Z,981.10
2019-03-16T06:08:57.229Z,981.12
2019-03-16T06:09:57.214Z,981.19
2019-03-16T06:10:57.109Z,981.10
2019-03-16T06:11:57.050Z,981.19
2019-03-16T06:12:56.995Z,981.23
2019-03-16T06:13:56.934Z,981.21
2019-03-16T06:14:56.879Z,981.22
2019-03-16T06:15:56.820Z,981.22
2019-03-16T06:16:56.760Z,981.23
2019-03-16T06:17:56.701Z,981.25
2019-03-16T06:18:56.647Z,981.23
2019-03-16T06:19:56.584Z,981.22
2019-03-16T06:20:56.526Z,981.23
2019-03-16T06:21:56.471Z,981.33
2019-03-16T06:22:56.424Z,981.29
2019-03-16T06:23:56.353Z,981.33
2019-03-16T06:24:56.293Z,981.32
2019-03-16T06:25:56.237Z,981.30
2019-03-16T06:26:56.177Z,981.36
2019-03-16T06:27:56.119Z,981.30
2019-03-16T06:28:56.060Z,981.34
2019-03-16T06:29:56.005Z,981.30
2019-03-16T06:30:55.947Z,981.35
2019-03-16T06:31:55.885Z,981.41
2019-03-16T06:32:55.829Z,981.38
2019-03-16T06:33:55.769Z,981.38
2019-03-16T06:34:55.710Z,981.30
2019-03-16T06:35:55.653Z,981.39
2019-03-16T06:36:55.596Z,981.43
2019-03-16T06:37:55.536Z,981.44
2019-03-16T06:38:55.478Z,981.44
2019-03-16T06:39:55.420Z,981.44
2019-03-16T06:40:55.362Z,981.52
2019-03-16T06:41:55.303Z,981.46
2019-03-16T06:42:55.246Z,981.44
2019-03-16T06:43:55.220Z,981.53
2019-03-16T06:44:55.132Z,981.51
2019-03-16T06:45:55.072Z,981.50
2019-03-16T06:46:55.011Z,981.56
2019-03-16T06:47:55.057Z,981.52
2019-03-16T06:48:54.902Z,981.58
2019-03-16T06:49:54.837Z,981.53
2019-03-16T06:50:54.842Z,981.58
2019-03-16T06:51:54.811Z,981.60
2019-03-16T06:52:54.662Z,981.61
2019-03-16T06:53:54.604Z,981.64
2019-03-16T06:54:54.546Z,981.57
2019-03-16T06:55:54.488Z,981.61
2019-03-16T06:56:54.430Z,981.63
2019-03-16T06:57:54.374Z,981.64
2019-03-16T06:58:54.315Z,981.68
2019-03-16T06:59:54.256Z,981.68
2019-03-16T07:00:54.200Z,981.72
2019-03-16T07:01:54.138Z,981.69
2019-03-16T07:02:54.083Z,981.69
2019-03-16T07:03:54.022Z,981.69
2019-03-16T07:04:53.966Z,981.72
2019-03-16T07:05:53.907Z,981.73
2019-03-16T07:06:54.453Z,981.67
2019-03-16T07:07:53.790Z,981.71
2019-03-16T07:08:53.731Z,981.70
2019-03-16T07:09:53.679Z,981.68
2019-03-16T07:10:53.616Z,981.72
2019-03-16T07:11:53.556Z,981.70
2019-03-16T07:12:53.498Z,981.71
2019-03-16T07:13:53.441Z,981.73
2019-03-16T07:14:53.382Z,981.75
2019-03-16T07:15:53.324Z,981.81
2019-03-16T07:17:02.028Z,981.73
2019-03-16T07:17:53.209Z,981.74
2019-03-16T07:18:58.714Z,981.79
2019-03-16T07:19:53.092Z,981.74
2019-03-16T07:20:53.034Z,981.78
2019-03-16T07:21:52.974Z,981.73
2019-03-16T07:22:52.920Z,981.82
2019-03-16T07:23:52.860Z,981.82
2019-03-16T07:24:52.803Z,981.78
2019-03-16T07:25:52.774Z,981.76
2019-03-16T07:26:52.682Z,981.88
2019-03-16T07:27:52.625Z,981.85
2019-03-16T07:28:52.566Z,981.82
2019-03-16T07:29:52.509Z,981.86
2019-03-16T07:30:52.451Z,981.93
2019-03-16T07:31:52.393Z,981.94
2019-03-16T07:32:52.402Z,981.95
2019-03-16T07:33:52.280Z,981.92
2019-03-16T07:34:52.264Z,981.94
2019-03-16T07:35:52.158Z,981.99
2019-03-16T07:36:52.101Z,981.99
2019-03-16T07:37:52.044Z,982.06
2019-03-16T07:38:51.984Z,982.10
2019-03-16T07:39:51.926Z,981.98
2019-03-16T07:40:51.868Z,981.99
2019-03-16T07:41:51.815Z,982.03
2019-03-16T07:42:51.750Z,981.96
2019-03-16T07:43:51.693Z,982.05
2019-03-16T07:44:51.634Z,981.99
2019-03-16T07:45:51.580Z,981.95
2019-03-16T07:46:51.519Z,981.90
2019-03-16T07:47:51.460Z,981.94
2019-03-16T07:48:51.402Z,981.96
2019-03-16T07:49:51.374Z,982.00
2019-03-16T07:50:51.295Z,981.99
2019-03-16T07:51:51.230Z,981.91
2019-03-16T07:52:51.170Z,982.00
2019-03-16T07:53:51.111Z,981.97
2019-03-16T07:54:51.053Z,981.94
2019-03-16T07:55:50.994Z,981.95
2019-03-16T07:56:50.939Z,981.88
2019-03-16T07:57:50.881Z,982.02
2019-03-16T07:58:50.821Z,981.99
2019-03-16T07:59:50.767Z,982.04
2019-03-16T08:00:50.706Z,982.07
2019-03-16T08:01:50.695Z,981.87
2019-03-16T08:02:50.587Z,982.02
2019-03-16T08:03:50.600Z,982.07
2019-03-16T08:04:50.472Z,982.09
2019-03-16T08:05:50.413Z,982.11
2019-03-16T08:06:50.365Z,982.11
2019-03-16T08:07:50.298Z,982.13
2019-03-16T08:08:50.241Z,982.11
2019-03-16T08:09:50.186Z,982.14
2019-03-16T08:10:50.121Z,982.18
2019-03-16T08:11:50.064Z,982.13
2019-03-16T08:12:50.006Z,982.17
2019-03-16T08:13:49.952Z,982.16
2019-03-16T08:14:49.894Z,982.18
2019-03-16T08:15:49.831Z,982.21
2019-03-16T08:16:49.772Z,982.23
2019-03-16T08:17:49.716Z,982.23
2019-03-16T08:18:49.655Z,982.24
2019-03-16T08:19:49.598Z,982.24
2019-03-16T08:20:49.541Z,982.27
2019-03-16T08:21:49.484Z,982.31
2019-03-16T08:22:49.422Z,982.25
2019-03-16T08:23:49.366Z,982.27
2019-03-16T08:24:49.330Z,982.27
2019-03-16T08:25:49.249Z,982.30
2019-03-16T08:26:49.191Z,982.22
2019-03-16T08:27:54.434Z,982.26
2019-03-16T08:28:49.077Z,982.25
2019-03-16T08:29:49.017Z,982.30
2019-03-16T08:30:48.960Z,982.29
2019-03-16T08:31:48.900Z,982.32
2019-03-16T08:32:48.842Z,982.33
2019-03-16T08:33:48.786Z,982.32
2019-03-16T08:34:48.725Z,982.31
2019-03-16T08:35:48.666Z,982.34
2019-03-16T08:36:48.609Z,982.37
2019-03-16T08:37:48.554Z,982.32
2019-03-16T08:38:48.492Z,982.42
2019-03-16T08:39:48.435Z,982.41
2019-03-16T08:40:48.377Z,982.43
2019-03-16T08:41:48.318Z,982.43
2019-03-16T08:42:51.263Z,982.45
2019-03-16T08:43:48.201Z,982.42
2019-03-16T08:44:48.143Z,982.43
2019-03-16T08:45:48.084Z,982.41
2019-03-16T08:46:48.026Z,982.45
2019-03-16T08:47:47.968Z,982.46
2019-03-16T08:48:47.909Z,982.45
2019-03-16T08:49:47.853Z,982.43
2019-03-16T08:50:47.794Z,982.41
2019-03-16T08:51:47.736Z,982.38
2019-03-16T08:52:47.678Z,982.39
2019-03-16T08:53:47.621Z,982.45
2019-03-16T08:54:47.561Z,982.44
2019-03-16T08:55:47.504Z,982.41
2019-03-16T08:56:47.445Z,982.40
2019-03-16T08:57:47.399Z,982.39
2019-03-16T08:58:47.328Z,982.47
2019-03-16T08:59:47.272Z,982.42
2019-03-16T09:00:47.212Z,982.43
2019-03-16T09:01:47.160Z,982.40
2019-03-16T09:02:47.095Z,982.43
2019-03-16T09:03:47.038Z,982.42
2019-03-16T09:04:46.980Z,982.40
2019-03-16T09:05:46.923Z,982.39
2019-03-16T09:06:46.866Z,982.39
2019-03-16T09:07:46.804Z,982.34
2019-03-16T09:08:46.749Z,982.43
2019-03-16T09:09:46.689Z,982.35
2019-03-16T09:10:46.634Z,982.34
2019-03-16T09:11:46.572Z,982.32
2019-03-16T09:12:54.825Z,982.27
2019-03-16T09:13:46.457Z,982.28
2019-03-16T09:14:46.402Z,982.28
2019-03-16T09:15:46.343Z,982.29
2019-03-16T09:16:46.285Z,982.29
2019-03-16T09:17:46.228Z,982.27
2019-03-16T09:18:46.167Z,982.27
2019-03-16T09:19:46.107Z,982.27
2019-03-16T09:20:46.053Z,982.24
2019-03-16T09:21:45.998Z,982.29
2019-03-16T09:22:45.938Z,982.33
2019-03-16T09:23:45.876Z,982.28
2019-03-16T09:24:45.818Z,982.28
2019-03-16T09:25:45.759Z,982.28
2019-03-16T09:26:45.711Z,982.28
2019-03-16T09:27:45.645Z,982.25
2019-03-16T09:28:45.588Z,982.20
2019-03-16T09:29:45.530Z,982.28
2019-03-16T09:30:45.467Z,982.34
2019-03-16T09:31:45.413Z,982.32
2019-03-16T09:32:45.353Z,982.27
2019-03-16T09:33:45.292Z,982.33
2019-03-16T09:34:45.247Z,982.30
2019-03-16T09:35:45.178Z,982.37
2019-03-16T09:36:45.127Z,982.31
2019-03-16T09:37:45.063Z,982.26
2019-03-16T09:38:45.006Z,982.24
2019-03-16T09:39:44.946Z,982.23
2019-03-16T09:40:44.887Z,982.29
2019-03-16T09:41:44.838Z,982.25
2019-03-16T09:42:44.770Z,982.20
2019-03-16T09:43:44.711Z,982.25
2019-03-16T09:44:44.653Z,982.13
2019-03-16T09:45:44.596Z,982.09
2019-03-16T09:46:44.537Z,982.03
2019-03-16T09:47:44.482Z,982.12
2019-03-16T09:48:44.424Z,982.08
2019-03-16T09:49:44.363Z,982.05
2019-03-16T09:50:44.308Z,982.14
2019-03-16T09:51:44.247Z,982.06
2019-03-16T09:52:44.188Z,982.06
2019-03-16T09:53:44.130Z,982.05
2019-03-16T09:54:44.072Z,981.95
2019-03-16T09:55:44.022Z,981.97
2019-03-16T09:56:43.955Z,981.99
2019-03-16T09:57:43.901Z,981.96
2019-03-16T09:58:43.841Z,981.95
2019-03-16T09:59:43.781Z,982.05
2019-03-16T10:00:43.729Z,981.97
2019-03-16T10:01:43.666Z,981.94
2019-03-16T10:02:43.606Z,982.05
2019-03-16T10:03:43.549Z,982.01
2019-03-16T10:04:43.492Z,982.03
2019-03-16T10:05:43.439Z,981.98
2019-03-16T10:06:43.374Z,982.02
2019-03-16T10:07:43.319Z,982.06
2019-03-16T10:08:43.262Z,982.06
2019-03-16T10:09:43.204Z,982.05
2019-03-16T10:10:43.145Z,982.11
2019-03-16T10:11:43.084Z,982.08
2019-03-16T10:12:43.031Z,982.14
2019-03-16T10:13:42.969Z,982.07
2019-03-16T10:14:42.913Z,981.94
2019-03-16T10:15:42.852Z,982.10
2019-03-16T10:16:42.798Z,982.05
2019-03-16T10:17:42.736Z,982.09
2019-03-16T10:18:42.678Z,982.03
2019-03-16T10:19:42.619Z,982.00
2019-03-16T10:20:42.564Z,981.97
2019-03-16T10:21:42.503Z,982.00
2019-03-16T10:22:42.449Z,982.00
2019-03-16T10:23:42.389Z,981.95
2019-03-16T10:24:42.331Z,981.99
2019-03-16T10:25:42.270Z,981.94
2019-03-16T10:26:42.213Z,981.96
2019-03-16T10:27:42.155Z,981.90
2019-03-16T10:28:43.802Z,981.93
2019-03-16T10:29:42.039Z,981.91
2019-03-16T10:30:41.979Z,981.89
2019-03-16T10:31:41.922Z,981.94
2019-03-16T10:32:41.871Z,981.93
2019-03-16T10:33:41.807Z,981.90
2019-03-16T10:34:41.747Z,981.87
2019-03-16T10:35:41.693Z,981.87
2019-03-16T10:36:41.634Z,981.87
2019-03-16T10:37:41.576Z,981.87
2019-03-16T10:38:41.516Z,981.84
2019-03-16T10:39:41.459Z,981.85
2019-03-16T10:40:41.400Z,981.88
2019-03-16T10:41:41.342Z,981.87
2019-03-16T10:42:41.284Z,981.90
2019-03-16T10:43:41.238Z,981.91
2019-03-16T10:44:41.168Z,981.95
2019-03-16T10:45:41.110Z,981.95
2019-03-16T10:46:41.053Z,982.00
2019-03-16T10:47:41.039Z,981.99
2019-03-16T10:48:40.940Z,981.84
2019-03-16T10:49:40.877Z,981.91
2019-03-16T10:50:40.822Z,981.92
2019-03-16T10:51:40.760Z,981.93
2019-03-16T10:52:40.709Z,981.95
2019-03-16T10:53:40.646Z,981.93
2019-03-16T10:54:40.587Z,981.91
2019-03-16T10:55:40.528Z,981.89
2019-03-16T10:56:40.472Z,981.91
2019-03-16T10:57:40.416Z,981.88
2019-03-16T10:58:40.356Z,981.85
2019-03-16T10:59:40.301Z,981.87
2019-03-16T11:00:40.239Z,981.91
2019-03-16T11:01:40.180Z,981.92
2019-03-16T11:02:40.180Z,981.92
2019-03-16T11:03:40.069Z,981.90
2019-03-16T11:04:40.008Z,981.88
2019-03-16T11:05:39.949Z,981.86
2019-03-16T11:06:39.895Z,981.86
2019-03-16T11:07:39.831Z,981.91
2019-03-16T11:08:39.775Z,981.87
2019-03-16T11:09:39.718Z,981.91
2019-03-16T11:10:39.660Z,981.93
2019-03-16T11:11:39.606Z,981.96
2019-03-16T11:12:39.545Z,981.90
2019-03-16T11:13:39.483Z,981.84
2019-03-16T11:14:41.185Z,981.91
2019-03-16T11:15:39.373Z,981.91
2019-03-16T11:16:39.311Z,981.97
2019-03-16T11:17:39.257Z,981.94
2019-03-16T11:18:39.192Z,981.89
2019-03-16T11:19:39.136Z,981.82
2019-03-16T11:20:39.080Z,981.81
2019-03-16T11:21:39.022Z,981.81
2019-03-16T11:22:38.964Z,981.78
2019-03-16T11:23:38.905Z,981.79
2019-03-16T11:24:38.846Z,981.84
2019-03-16T11:25:38.787Z,981.78
2019-03-16T11:26:38.730Z,981.76
2019-03-16T11:27:38.677Z,981.73
2019-03-16T11:28:38.613Z,981.78
2019-03-16T11:29:38.555Z,981.76
2019-03-16T11:30:38.498Z,981.74
2019-03-16T11:31:38.441Z,981.71
2019-03-16T11:32:38.405Z,981.72
2019-03-16T11:33:38.324Z,981.75
2019-03-16T11:34:38.265Z,981.72
2019-03-16T11:35:38.207Z,981.71
2019-03-16T11:36:38.148Z,981.70
2019-03-16T11:37:38.091Z,981.75
2019-03-16T11:38:38.031Z,981.65
2019-03-16T11:39:37.975Z,981.66
2019-03-16T11:40:37.917Z,981.61
2019-03-16T11:41:37.861Z,981.62
2019-03-16T11:42:37.803Z,981.60
2019-03-16T11:43:37.744Z,981.64
2019-03-16T11:44:37.686Z,981.63
2019-03-16T11:45:37.627Z,981.55
2019-03-16T11:46:37.570Z,981.67
2019-03-16T11:47:37.511Z,981.57
2019-03-16T11:48:37.454Z,981.53
2019-03-16T11:49:37.397Z,981.53
2019-03-16T11:50:37.338Z,981.52
2019-03-16T11:51:37.284Z,981.50
2019-03-16T11:52:37.221Z,981.48
2019-03-16T11:53:37.165Z,981.41
2019-03-16T11:54:37.103Z,981.38
2019-03-16T11:55:37.047Z,981.36
2019-03-16T11:56:36.988Z,981.41
2019-03-16T11:57:36.931Z,981.39
2019-03-16T11:58:36.875Z,981.36
2019-03-16T11:59:36.813Z,981.42
2019-03-16T12:00:36.757Z,981.30
2019-03-16T12:01:36.699Z,981.32
2019-03-16T12:02:36.650Z,981.27
2019-03-16T12:03:36.583Z,981.19
2019-03-16T12:04:36.529Z,981.27
2019-03-16T12:05:36.468Z,981.15
2019-03-16T12:06:36.408Z,981.33
2019-03-16T12:07:36.350Z,981.22
2019-03-16T12:08:36.291Z,981.34
2019-03-16T12:09:36.233Z,981.26
2019-03-16T12:10:36.176Z,981.22
2019-03-16T12:11:36.121Z,981.28
2019-03-16T12:12:36.061Z,981.28
2019-03-16T12:13:36.005Z,981.25
2019-03-16T12:14:35.944Z,981.22
2019-03-16T12:15:35.888Z,981.18
2019-03-16T12:16:35.831Z,981.11
2019-03-16T12:17:35.775Z,981.12
2019-03-16T12:18:35.713Z,981.10
2019-03-16T12:19:35.654Z,981.08
2019-03-16T12:20:35.596Z,981.03
2019-03-16T12:21:35.546Z,981.11
2019-03-16T12:22:35.490Z,981.09
2019-03-16T12:23:35.427Z,980.97
2019-03-16T12:24:35.366Z,981.04
2019-03-16T12:25:35.307Z,981.01
2019-03-16T12:26:35.345Z,981.00
2019-03-16T12:27:35.277Z,981.01